createdAt,value
2023-04-19T00:00:45.415Z,11.90
2023-04-19T00:03:14.899Z,11.90
2023-04-19T00:05:42.582Z,11.90
2023-04-19T00:08:09.592Z,12.00
2023-04-19T00:10:36.575Z,12.00
2023-04-19T00:13:03.448Z,11.90
2023-04-19T00:15:30.327Z,11.90
2023-04-19T00:17:57.232Z,11.90
2023-04-19T00:20:24.343Z,11.80
2023-04-19T00:22:51.146Z,11.90
2023-04-19T00:25:18.046Z,11.70
2023-04-19T00:27:45.073Z,11.70
2023-04-19T00:30:12.353Z,11.80
2023-04-19T00:32:39.278Z,11.70
2023-04-19T00:35:06.572Z,11.70
2023-04-19T00:37:33.382Z,11.50
2023-04-19T00:40:00.251Z,11.60
2023-04-19T00:42:27.490Z,11.70
2023-04-19T00:44:54.407Z,11.80
2023-04-19T00:47:21.488Z,11.80
2023-04-19T00:49:48.452Z,11.60
2023-04-19T00:52:15.450Z,11.60
2023-04-19T00:54:45.209Z,11.60
2023-04-19T00:59:54.611Z,11.50
2023-04-19T01:02:22.549Z,11.50
2023-04-19T01:04:50.470Z,11.60
2023-04-19T01:07:20.458Z,11.50
2023-04-19T01:09:47.749Z,11.40
2023-04-19T01:12:14.626Z,11.30
2023-04-19T01:14:42.084Z,11.30
2023-04-19T01:17:09.279Z,11.30
2023-04-19T01:19:37.181Z,11.30
2023-04-19T01:22:04.300Z,11.30
2023-04-19T01:24:31.893Z,11.40
2023-04-19T01:27:04.922Z,11.30
2023-04-19T01:29:31.851Z,11.30
2023-04-19T01:32:01.454Z,11.20
2023-04-19T01:34:28.612Z,11.20
2023-04-19T01:36:55.639Z,11.20
2023-04-19T01:39:22.835Z,11.10
2023-04-19T01:41:49.819Z,11.20
2023-04-19T01:44:16.846Z,11.10
2023-04-19T01:46:43.993Z,11.10
2023-04-19T01:49:11.082Z,11.20
2023-04-19T01:51:38.925Z,11.10
2023-04-19T01:54:05.791Z,11.10
2023-04-19T01:56:33.183Z,11.00
2023-04-19T01:59:00.068Z,10.90
2023-04-19T02:01:27.001Z,10.90
2023-04-19T02:03:54.254Z,10.90
2023-04-19T02:06:21.217Z,10.80
2023-04-19T02:08:48.047Z,10.90
2023-04-19T02:11:15.127Z,10.90
2023-04-19T02:13:42.759Z,10.80
2023-04-19T02:16:10.801Z,10.80
2023-04-19T02:18:39.506Z,10.90
2023-04-19T02:21:07.858Z,11.00
2023-04-19T02:23:35.642Z,10.90
2023-04-19T02:26:03.396Z,10.80
2023-04-19T02:28:31.688Z,10.70
2023-04-19T02:30:59.223Z,10.80
2023-04-19T02:33:29.476Z,10.70
2023-04-19T02:35:56.514Z,10.70
2023-04-19T02:38:23.550Z,10.60
2023-04-19T02:40:50.373Z,10.70
2023-04-19T02:43:17.334Z,10.70
2023-04-19T02:45:44.594Z,10.60
2023-04-19T02:48:11.505Z,10.60
2023-04-19T02:50:40.930Z,10.50
2023-04-19T02:53:07.769Z,10.60
2023-04-19T02:55:34.833Z,10.60
2023-04-19T02:58:01.899Z,10.50
2023-04-19T03:00:28.913Z,10.40
2023-04-19T03:02:57.025Z,10.30
2023-04-19T03:05:24.506Z,10.30
2023-04-19T03:07:51.340Z,10.20
2023-04-19T03:10:18.288Z,10.30
2023-04-19T03:12:45.205Z,10.30
2023-04-19T03:15:12.253Z,10.20
2023-04-19T03:17:39.163Z,10.20
2023-04-19T03:20:11.597Z,10.20
2023-04-19T03:22:39.152Z,10.10
2023-04-19T03:25:07.096Z,10.20
2023-04-19T03:27:36.635Z,10.30
2023-04-19T03:30:03.809Z,10.20
2023-04-19T03:32:31.769Z,10.20
2023-04-19T03:34:58.601Z,10.00
2023-04-19T03:37:25.625Z,10.10
2023-04-19T03:39:52.616Z,10.10
2023-04-19T03:42:19.733Z,10.10
2023-04-19T03:44:46.829Z,10.00
2023-04-19T03:47:13.860Z,9.90
2023-04-19T03:49:40.763Z,10.00
2023-04-19T03:52:07.625Z,10.20
2023-04-19T03:54:34.409Z,10.20
2023-04-19T03:57:01.757Z,10.10
2023-04-19T03:59:28.621Z,10.10
2023-04-19T04:01:55.977Z,10.10
2023-04-19T04:04:23.611Z,10.20
2023-04-19T04:06:51.244Z,10.20
2023-04-19T04:09:18.079Z,10.20
2023-04-19T04:11:45.159Z,10.10
2023-04-19T04:14:12.201Z,10.10
2023-04-19T04:16:39.370Z,10.10
2023-04-19T04:19:06.482Z,10.20
2023-04-19T04:21:33.717Z,10.20
2023-04-19T04:24:03.823Z,10.10
2023-04-19T04:26:30.829Z,10.10
2023-04-19T04:29:01.969Z,10.20
2023-04-19T04:31:28.844Z,10.20
2023-04-19T04:33:55.877Z,10.20
2023-04-19T04:36:22.760Z,10.30
2023-04-19T04:38:50.041Z,10.30
2023-04-19T04:41:17.012Z,10.10
2023-04-19T04:43:45.522Z,10.10
2023-04-19T04:46:12.401Z,9.90
2023-04-19T04:48:39.230Z,9.90
2023-04-19T04:51:06.154Z,10.00
2023-04-19T04:53:35.683Z,9.90
2023-04-19T04:56:02.669Z,9.80
2023-04-19T04:58:29.644Z,9.90
2023-04-19T05:00:56.712Z,9.80
2023-04-19T05:03:23.916Z,9.80
2023-04-19T05:05:51.053Z,9.70
2023-04-19T05:08:17.821Z,9.80
2023-04-19T05:10:44.866Z,9.80
2023-04-19T05:13:12.188Z,9.90
2023-04-19T05:15:39.144Z,9.90
2023-04-19T05:18:06.639Z,9.90
2023-04-19T05:20:36.519Z,9.90
2023-04-19T05:23:03.628Z,9.90
2023-04-19T05:25:30.597Z,9.90
2023-04-19T05:27:58.148Z,9.90
2023-04-19T05:30:25.349Z,9.90
2023-04-19T05:32:52.872Z,9.90
2023-04-19T05:35:20.216Z,9.90
2023-04-19T05:37:47.090Z,10.10
2023-04-19T05:40:14.204Z,10.10
2023-04-19T05:42:41.427Z,10.10
2023-04-19T05:45:08.984Z,10.20
2023-04-19T05:47:36.012Z,10.20
2023-04-19T05:50:06.965Z,10.40
2023-04-19T05:52:34.041Z,10.50
2023-04-19T05:55:01.586Z,10.60
2023-04-19T05:57:28.370Z,10.60
2023-04-19T05:59:55.558Z,10.60
2023-04-19T06:02:23.380Z,10.60
2023-04-19T06:04:50.662Z,10.70
2023-04-19T06:07:30.827Z,10.70
2023-04-19T06:09:59.909Z,10.80
2023-04-19T06:12:26.997Z,10.90
2023-04-19T06:14:54.292Z,11.10
2023-04-19T06:17:25.442Z,11.10
2023-04-19T06:19:53.543Z,11.20
2023-04-19T06:22:21.349Z,11.40
2023-04-19T06:24:48.774Z,11.50
2023-04-19T06:27:18.707Z,11.40
2023-04-19T06:29:45.629Z,11.50
2023-04-19T06:32:12.699Z,11.50
2023-04-19T06:34:39.620Z,11.70
2023-04-19T06:37:06.402Z,11.90
2023-04-19T06:39:33.361Z,11.90
2023-04-19T06:42:00.252Z,12.10
2023-04-19T06:44:27.052Z,12.00
2023-04-19T06:46:54.065Z,12.10
2023-04-19T06:49:22.726Z,12.20
2023-04-19T06:51:49.768Z,12.30
2023-04-19T06:54:17.220Z,12.40
2023-04-19T06:56:45.877Z,12.40
2023-04-19T06:59:19.137Z,12.50
2023-04-19T07:01:47.021Z,12.70
2023-04-19T07:04:16.310Z,12.70
2023-04-19T07:06:43.588Z,12.80
2023-04-19T07:09:10.584Z,12.90
2023-04-19T07:11:37.641Z,13.00
2023-04-19T07:14:04.674Z,13.10
2023-04-19T07:16:31.879Z,13.20
2023-04-19T07:18:59.067Z,13.30
2023-04-19T07:21:28.765Z,13.40
2023-04-19T07:23:56.003Z,13.40
2023-04-19T07:26:22.870Z,13.40
2023-04-19T07:28:50.374Z,13.60
2023-04-19T07:31:18.885Z,13.70
2023-04-19T07:33:45.998Z,13.80
2023-04-19T07:36:12.889Z,13.90
2023-04-19T07:38:40.170Z,14.10
2023-04-19T07:41:07.297Z,14.10
2023-04-19T07:43:34.806Z,14.10
2023-04-19T07:46:02.339Z,14.20
2023-04-19T07:48:29.312Z,14.40
2023-04-19T07:50:56.137Z,14.50
2023-04-19T07:53:23.049Z,14.50
2023-04-19T07:55:49.886Z,14.40
2023-04-19T07:58:16.970Z,14.50
2023-04-19T08:00:44.191Z,14.60
2023-04-19T08:03:11.790Z,14.80
2023-04-19T08:05:39.070Z,14.90
2023-04-19T08:08:06.020Z,15.00
2023-04-19T08:10:33.613Z,15.20
2023-04-19T08:13:05.367Z,15.30
2023-04-19T08:18:05.656Z,15.40
2023-04-19T08:20:33.526Z,15.50
2023-04-19T08:23:10.547Z,15.60
2023-04-19T08:25:45.495Z,15.60
2023-04-19T08:28:12.776Z,16.00
2023-04-19T08:30:40.617Z,15.90
2023-04-19T08:33:07.639Z,16.10
2023-04-19T08:35:36.316Z,16.20
2023-04-19T08:38:05.019Z,16.10
2023-04-19T08:40:32.014Z,16.30
2023-04-19T08:42:59.241Z,16.40
2023-04-19T08:45:30.609Z,16.60
2023-04-19T08:48:01.488Z,16.80
2023-04-19T08:53:15.728Z,17.10
2023-04-19T08:56:06.809Z,17.10
2023-04-19T08:58:54.823Z,17.10
2023-04-19T09:01:34.539Z,16.90
2023-04-19T09:04:17.146Z,16.90
2023-04-19T09:06:48.579Z,16.60
2023-04-19T09:09:36.637Z,16.80
2023-04-19T09:12:17.702Z,16.90
2023-04-19T09:17:18.137Z,16.90
2023-04-19T09:19:49.912Z,16.90
2023-04-19T09:22:18.185Z,17.00
2023-04-19T09:27:27.537Z,17.20
2023-04-19T09:29:59.108Z,17.10
2023-04-19T09:32:27.306Z,17.40
2023-04-19T09:34:56.727Z,17.60
2023-04-19T09:39:54.214Z,17.60
2023-04-19T09:42:42.264Z,17.60
2023-04-19T09:47:39.210Z,17.20
2023-04-19T09:52:40.324Z,17.20
2023-04-19T09:55:17.788Z,17.20
2023-04-19T09:57:49.809Z,17.40
2023-04-19T10:00:17.072Z,17.40
2023-04-19T10:02:48.643Z,17.50
2023-04-19T10:05:21.170Z,17.60
2023-04-19T10:07:50.418Z,17.90
2023-04-19T10:10:20.819Z,18.50
2023-04-19T10:13:15.315Z,18.90
2023-04-19T10:18:09.861Z,19.50
2023-04-19T10:21:07.579Z,19.60
2023-04-19T10:23:34.913Z,19.70
2023-04-19T10:26:01.954Z,19.60
2023-04-19T10:28:30.098Z,19.80
2023-04-19T10:31:05.354Z,19.90
2023-04-19T10:33:36.459Z,19.80
2023-04-19T10:36:04.839Z,20.00
2023-04-19T10:38:43.375Z,19.80
2023-04-19T10:41:17.580Z,20.20
2023-04-19T10:44:09.323Z,20.30
2023-04-19T10:46:40.212Z,20.00
2023-04-19T10:49:10.050Z,19.70
2023-04-19T10:51:39.105Z,19.70
2023-04-19T10:54:10.454Z,19.80
2023-04-19T10:56:39.314Z,19.60
2023-04-19T10:59:12.187Z,19.70
2023-04-19T11:01:53.865Z,19.50
2023-04-19T11:04:30.219Z,19.50
2023-04-19T11:07:06.189Z,19.50
2023-04-19T11:09:34.734Z,19.70
2023-04-19T11:12:11.061Z,19.70
2023-04-19T11:14:41.619Z,20.10
2023-04-19T11:17:28.323Z,20.40
2023-04-19T11:19:57.594Z,20.70
2023-04-19T11:22:34.842Z,20.90
2023-04-19T11:25:05.334Z,21.00
2023-04-19T11:27:33.710Z,21.20
2023-04-19T11:30:12.226Z,21.10
2023-04-19T11:32:46.785Z,21.10
2023-04-19T11:35:14.105Z,21.00
2023-04-19T11:37:41.527Z,20.80
2023-04-19T11:40:11.833Z,20.50
2023-04-19T11:42:38.939Z,20.40
2023-04-19T11:45:13.207Z,20.20
2023-04-19T11:47:51.686Z,20.20
2023-04-19T11:50:34.247Z,20.80
2023-04-19T11:53:30.077Z,21.20
2023-04-19T11:56:07.975Z,20.90
2023-04-19T11:58:40.811Z,21.20
2023-04-19T12:01:10.524Z,21.30
2023-04-19T12:03:45.755Z,21.50
2023-04-19T12:06:25.607Z,21.60
2023-04-19T12:08:53.719Z,21.20
2023-04-19T12:11:24.641Z,20.80
2023-04-19T12:14:15.112Z,20.50
2023-04-19T12:16:42.318Z,20.50
2023-04-19T12:19:18.039Z,20.60
2023-04-19T12:21:46.941Z,21.00
2023-04-19T12:24:16.630Z,21.10
2023-04-19T12:26:57.362Z,20.90
2023-04-19T12:29:24.622Z,20.80
2023-04-19T12:31:51.555Z,20.80
2023-04-19T12:34:18.590Z,20.70
2023-04-19T12:36:45.389Z,20.80
2023-04-19T12:39:12.624Z,20.90
2023-04-19T12:41:39.457Z,21.00
2023-04-19T12:44:06.444Z,20.80
2023-04-19T12:46:33.644Z,20.90
2023-04-19T12:49:00.948Z,21.20
2023-04-19T12:51:28.140Z,21.40
2023-04-19T12:53:55.277Z,21.30
2023-04-19T12:56:22.314Z,21.50
2023-04-19T12:58:49.163Z,21.60
2023-04-19T13:01:16.295Z,21.90
2023-04-19T13:03:43.565Z,22.10
2023-04-19T13:06:14.734Z,22.50
2023-04-19T13:08:47.142Z,22.40
2023-04-19T13:11:15.847Z,22.00
2023-04-19T13:13:42.833Z,21.40
2023-04-19T13:16:09.922Z,21.10
2023-04-19T13:18:36.927Z,21.40
2023-04-19T13:21:06.028Z,22.00
2023-04-19T13:23:34.256Z,21.80
2023-04-19T13:26:01.062Z,21.50
2023-04-19T13:28:27.920Z,21.60
2023-04-19T13:30:54.793Z,21.90
2023-04-19T13:33:21.967Z,22.00
2023-04-19T13:35:48.813Z,22.50
2023-04-19T13:38:15.766Z,22.70
2023-04-19T13:40:42.803Z,22.70
2023-04-19T13:43:09.839Z,22.40
2023-04-19T13:45:36.832Z,22.50
2023-04-19T13:48:03.912Z,22.40
2023-04-19T13:50:30.755Z,22.40
2023-04-19T13:52:57.673Z,22.70
2023-04-19T13:55:24.518Z,23.10
2023-04-19T13:57:51.475Z,23.00
2023-04-19T14:00:19.149Z,22.70
2023-04-19T14:02:46.517Z,22.60
2023-04-19T14:05:14.808Z,22.80
2023-04-19T14:07:41.791Z,23.20
2023-04-19T14:10:09.941Z,22.60
2023-04-19T14:12:36.849Z,22.70
2023-04-19T14:15:04.288Z,23.20
2023-04-19T14:17:31.184Z,23.30
2023-04-19T14:19:58.061Z,23.20
2023-04-19T14:22:24.904Z,23.20
2023-04-19T14:24:51.913Z,23.60
2023-04-19T14:27:19.360Z,23.80
2023-04-19T14:29:46.313Z,23.90
2023-04-19T14:32:24.941Z,23.90
2023-04-19T14:34:52.871Z,23.90
2023-04-19T14:37:21.377Z,23.90
2023-04-19T14:39:48.494Z,23.90
2023-04-19T14:42:15.421Z,24.10
2023-04-19T14:44:42.653Z,24.30
2023-04-19T14:47:09.786Z,24.60
2023-04-19T14:49:36.669Z,24.70
2023-04-19T14:52:04.392Z,24.60
2023-04-19T14:54:31.621Z,24.40
2023-04-19T14:56:58.984Z,24.60
2023-04-19T14:59:27.125Z,24.70
2023-04-19T15:01:55.324Z,24.90
2023-04-19T15:04:22.909Z,24.80
2023-04-19T15:06:50.074Z,24.60
2023-04-19T15:09:17.165Z,24.80
2023-04-19T15:11:44.846Z,24.70
2023-04-19T15:14:11.983Z,24.30
2023-04-19T15:16:39.020Z,24.50
2023-04-19T15:19:07.636Z,24.30
2023-04-19T15:21:34.877Z,24.10
2023-04-19T15:24:01.961Z,24.20
2023-04-19T15:26:29.072Z,23.90
2023-04-19T15:28:57.843Z,24.00
2023-04-19T15:31:25.563Z,23.90
2023-04-19T15:33:53.160Z,23.60
2023-04-19T15:36:20.231Z,23.70
2023-04-19T15:38:47.295Z,23.90
2023-04-19T15:41:14.361Z,23.80
2023-04-19T15:43:47.930Z,23.60
2023-04-19T15:46:15.971Z,23.30
2023-04-19T15:48:45.470Z,23.10
2023-04-19T15:51:15.252Z,23.40
2023-04-19T15:53:42.774Z,23.40
2023-04-19T15:56:10.380Z,23.40
2023-04-19T15:58:37.724Z,23.20
2023-04-19T16:01:07.615Z,23.20
2023-04-19T16:03:36.465Z,23.10
2023-04-19T16:06:04.097Z,22.90
2023-04-19T16:08:31.474Z,22.90
2023-04-19T16:10:58.552Z,23.10
2023-04-19T16:13:25.774Z,22.90
2023-04-19T16:15:52.873Z,22.90
2023-04-19T16:18:19.813Z,22.40
2023-04-19T16:20:46.835Z,22.30
2023-04-19T16:23:14.625Z,21.80
2023-04-19T16:25:41.602Z,21.50
2023-04-19T16:28:08.661Z,21.40
2023-04-19T16:30:35.899Z,21.00
2023-04-19T16:33:03.336Z,21.10
2023-04-19T16:35:43.333Z,20.90
2023-04-19T16:38:10.495Z,20.70
2023-04-19T16:40:37.470Z,20.60
2023-04-19T16:43:06.538Z,20.10
2023-04-19T16:45:33.906Z,20.00
2023-04-19T16:48:01.090Z,19.80
2023-04-19T16:50:28.236Z,19.80
2023-04-19T16:52:58.259Z,19.60
2023-04-19T16:55:25.342Z,19.50
2023-04-19T16:57:54.146Z,19.30
2023-04-19T17:00:21.851Z,19.10
2023-04-19T17:02:49.382Z,19.00
2023-04-19T17:05:16.958Z,18.90
2023-04-19T17:07:44.233Z,18.70
2023-04-19T17:10:12.007Z,18.70
2023-04-19T17:12:39.379Z,18.50
2023-04-19T17:15:06.770Z,18.30
2023-04-19T17:17:33.724Z,18.20
2023-04-19T17:20:00.572Z,17.80
2023-04-19T17:22:27.956Z,17.70
2023-04-19T17:24:57.404Z,17.90
2023-04-19T17:27:24.586Z,17.80
2023-04-19T17:29:51.665Z,17.70
2023-04-19T17:32:18.629Z,17.70
2023-04-19T17:34:45.865Z,17.60
2023-04-19T17:37:12.845Z,17.50
2023-04-19T17:39:39.832Z,17.40
2023-04-19T17:42:06.837Z,17.20
2023-04-19T17:44:33.816Z,17.30
2023-04-19T17:47:01.065Z,17.30
2023-04-19T17:49:28.363Z,17.30
2023-04-19T17:51:56.253Z,17.10
2023-04-19T17:54:23.353Z,17.20
2023-04-19T17:56:52.866Z,17.10
2023-04-19T17:59:19.747Z,16.80
2023-04-19T18:01:46.693Z,16.80
2023-04-19T18:04:17.867Z,16.70
2023-04-19T18:06:46.443Z,16.80
2023-04-19T18:09:13.531Z,16.70
2023-04-19T18:11:40.862Z,16.60
2023-04-19T18:14:08.063Z,16.60
2023-04-19T18:16:35.067Z,16.50
2023-04-19T18:19:02.234Z,16.30
2023-04-19T18:21:29.026Z,16.40
2023-04-19T18:23:56.681Z,16.30
2023-04-19T18:26:23.740Z,16.30
2023-04-19T18:28:50.777Z,16.20
2023-04-19T18:31:17.646Z,16.10
2023-04-19T18:33:44.599Z,15.90
2023-04-19T18:36:11.535Z,16.00
2023-04-19T18:38:38.548Z,16.00
2023-04-19T18:41:05.572Z,15.90
2023-04-19T18:43:32.457Z,15.80
2023-04-19T18:46:00.288Z,15.70
2023-04-19T18:48:28.589Z,15.60
2023-04-19T18:50:57.164Z,15.60
2023-04-19T18:53:27.820Z,15.50
2023-04-19T18:55:58.463Z,15.40
2023-04-19T18:58:29.394Z,15.30
2023-04-19T19:00:57.167Z,15.30
2023-04-19T19:05:55.510Z,15.00
2023-04-19T19:08:22.577Z,15.20
2023-04-19T19:11:14.049Z,15.20
2023-04-19T19:13:36.589Z,15.00
2023-04-19T19:16:05.458Z,14.90
2023-04-19T19:18:32.450Z,14.90
2023-04-19T19:21:00.396Z,14.70
2023-04-19T19:23:36.026Z,14.50
2023-04-19T19:26:06.543Z,14.60
2023-04-19T19:28:33.348Z,14.60
2023-04-19T19:31:00.390Z,14.60
2023-04-19T19:33:28.847Z,14.40
2023-04-19T19:35:55.888Z,14.50
2023-04-19T19:38:22.888Z,14.50
2023-04-19T19:43:19.819Z,14.10
2023-04-19T19:45:46.804Z,14.10
2023-04-19T19:48:13.971Z,14.10
2023-04-19T19:53:11.584Z,14.00
2023-04-19T19:55:38.659Z,13.90
2023-04-19T20:03:07.358Z,13.80
2023-04-19T20:05:34.863Z,13.60
2023-04-19T20:08:08.190Z,13.50
2023-04-19T20:10:36.359Z,13.50
2023-04-19T20:13:03.485Z,13.50
2023-04-19T20:15:30.451Z,13.60
2023-04-19T20:17:57.383Z,13.70
2023-04-19T20:20:24.410Z,13.60
2023-04-19T20:22:51.283Z,13.60
2023-04-19T20:25:18.605Z,13.40
2023-04-19T20:27:45.503Z,13.40
2023-04-19T20:30:13.087Z,13.30
2023-04-19T20:32:42.666Z,13.30
2023-04-19T20:35:12.506Z,13.30
2023-04-19T20:37:40.033Z,13.30
2023-04-19T20:40:11.217Z,13.20
2023-04-19T20:42:38.523Z,13.10
2023-04-19T20:45:07.255Z,13.00
2023-04-19T20:47:34.380Z,13.10
2023-04-19T20:50:01.380Z,13.00
2023-04-19T20:52:28.480Z,12.90
2023-04-19T20:54:57.119Z,13.00
2023-04-19T20:57:24.122Z,13.00
2023-04-19T20:59:51.479Z,12.80
2023-04-19T21:02:18.632Z,12.70
2023-04-19T21:04:46.126Z,12.80
2023-04-19T21:07:13.030Z,12.80
2023-04-19T21:09:39.860Z,12.70
2023-04-19T21:12:06.824Z,12.60
2023-04-19T21:14:34.135Z,12.60
2023-04-19T21:17:03.111Z,12.50
2023-04-19T21:19:30.517Z,12.60
2023-04-19T21:21:58.810Z,12.40
2023-04-19T21:24:26.504Z,12.30
2023-04-19T21:26:53.337Z,12.40
2023-04-19T21:29:20.551Z,12.40
2023-04-19T21:31:47.898Z,12.30
2023-04-19T21:34:14.943Z,12.40
2023-04-19T21:36:42.102Z,12.40
2023-04-19T21:39:10.289Z,12.20
2023-04-19T21:41:38.253Z,12.20
2023-04-19T21:44:05.231Z,12.20
2023-04-19T21:46:33.378Z,12.10
2023-04-19T21:49:00.379Z,12.00
2023-04-19T21:51:27.634Z,12.00
2023-04-19T21:53:54.439Z,12.00
2023-04-19T21:56:21.279Z,12.00
2023-04-19T21:58:48.218Z,11.90
2023-04-19T22:01:15.221Z,11.80
2023-04-19T22:03:42.821Z,11.70
2023-04-19T22:06:10.594Z,11.90
2023-04-19T22:08:37.656Z,11.90
2023-04-19T22:11:04.965Z,11.70
2023-04-19T22:13:33.469Z,11.60
2023-04-19T22:16:02.481Z,11.80
2023-04-19T22:18:29.616Z,11.70
2023-04-19T22:20:56.523Z,11.60
2023-04-19T22:23:23.615Z,11.70
2023-04-19T22:25:50.782Z,11.70
2023-04-19T22:28:17.596Z,11.80
2023-04-19T22:30:44.429Z,11.70
2023-04-19T22:33:11.836Z,11.70
2023-04-19T22:35:38.979Z,11.70
2023-04-19T22:38:06.395Z,11.80
2023-04-19T22:40:33.624Z,11.80
2023-04-19T22:43:00.765Z,11.70
2023-04-19T22:45:27.703Z,11.70
2023-04-19T22:47:54.753Z,11.90
2023-04-19T22:50:23.629Z,11.90
2023-04-19T22:52:51.151Z,11.90
2023-04-19T22:55:18.183Z,11.80
2023-04-19T22:57:45.068Z,11.70
2023-04-19T23:00:12.503Z,11.70
2023-04-19T23:02:40.467Z,11.60
2023-04-19T23:05:33.834Z,11.60
2023-04-19T23:08:02.693Z,11.70
2023-04-19T23:10:30.923Z,11.60
2023-04-19T23:12:57.945Z,11.60
2023-04-19T23:15:25.672Z,11.50
2023-04-19T23:17:52.882Z,11.60
2023-04-19T23:20:19.897Z,11.60
2023-04-19T23:22:47.001Z,11.40
2023-04-19T23:25:14.014Z,11.40
2023-04-19T23:27:40.913Z,11.50
2023-04-19T23:30:08.442Z,11.40
2023-04-19T23:32:35.481Z,11.50
2023-04-19T23:35:02.696Z,11.50
2023-04-19T23:37:29.810Z,11.50
2023-04-19T23:39:56.724Z,11.40
2023-04-19T23:42:23.743Z,11.40
2023-04-19T23:44:54.431Z,11.40
2023-04-19T23:47:24.565Z,11.40
2023-04-19T23:49:51.826Z,11.40
2023-04-19T23:52:22.539Z,11.40
2023-04-19T23:54:49.923Z,11.40
2023-04-19T23:57:16.934Z,11.40
2023-04-19T23:59:43.974Z,11.30
